Terminal Aerodrome Forecast
Issued by NWS

Home | Current Version | Previous Version | Graphics & Text | Print | Product List | Glossary On
Versions: 1 2 3 4 5 6 7 8 9 10 11 12 13 14 15 16
000
FTUS43 KICT 222335
TAFSLN
TAF
KSLN 222335Z 2300/2324 30007KT P6SM OVC300
     FM230500 05007KT P6SM OVC250
     FM230900 05013KT P6SM OVC130
     FM231200 07013KT P6SM OVC080
     FM231500 08017G22KT P6SM SCT020 OVC100=

USA.gov is the U.S. government's official web portal to all federal, state and local government web resources and services.